Markham, Virginia
Current Conditions -  °F | °C
As of 4:35 PM on Friday 24 Oct 2014 (Local Time) from KFRR Reporting Station
Clear Clear  
Wind Chill: 64°   Ceiling: Unl
Heat Index: 64°   Visibility: 10mi
Dew Point: 34°   Wind: 6mph
Humidity: 32%   Direction: 310°NW
Pressure: 29.93"   Gusts: NA
Location:  38.9°N, 78°W
Report Text: KFRR 242035Z AUTO 31005KT 10SM CLR 18/01 A2993 RMK AO1
Loading
Personal Weather Stations






























Interactive Weather Map
Tropical Storm Tracking
New forecast layout! Learn more

10-Day Weather Forecast

Advertisements
Track Severe Weather on mobile